sensor_id;sensor_type;location;lat;lon;timestamp;P1;durP1;ratioP1;P2;durP2;ratioP2
32639;SDS011;19049;52.524;11.468;2023-04-24T00:00:00;1.60;;;1.50;;
32639;SDS011;19049;52.524;11.468;2023-04-24T00:02:27;1.73;;;1.43;;
32639;SDS011;19049;52.524;11.468;2023-04-24T00:04:53;2.63;;;1.70;;
32639;SDS011;19049;52.524;11.468;2023-04-24T00:07:19;1.57;;;1.47;;
32639;SDS011;19049;52.524;11.468;2023-04-24T00:09:45;2.20;;;2.00;;
32639;SDS011;19049;52.524;11.468;2023-04-24T00:12:11;2.03;;;1.80;;
32639;SDS011;19049;52.524;11.468;2023-04-24T00:14:36;2.10;;;1.70;;
32639;SDS011;19049;52.524;11.468;2023-04-24T00:17:02;3.17;;;1.80;;
32639;SDS011;19049;52.524;11.468;2023-04-24T00:19:28;2.10;;;1.90;;
32639;SDS011;19049;52.524;11.468;2023-04-24T00:21:54;4.00;;;2.20;;
32639;SDS011;19049;52.524;11.468;2023-04-24T00:24:20;2.33;;;1.80;;
32639;SDS011;19049;52.524;11.468;2023-04-24T00:26:46;1.73;;;1.60;;
32639;SDS011;19049;52.524;11.468;2023-04-24T00:29:12;1.73;;;1.50;;
32639;SDS011;19049;52.524;11.468;2023-04-24T00:31:37;2.10;;;1.90;;
32639;SDS011;19049;52.524;11.468;2023-04-24T00:34:03;2.10;;;1.70;;
32639;SDS011;19049;52.524;11.468;2023-04-24T00:36:30;2.73;;;1.73;;
32639;SDS011;19049;52.524;11.468;2023-04-24T00:38:56;2.07;;;1.67;;
32639;SDS011;19049;52.524;11.468;2023-04-24T00:41:22;3.53;;;1.70;;
32639;SDS011;19049;52.524;11.468;2023-04-24T00:43:49;2.17;;;1.83;;
32639;SDS011;19049;52.524;11.468;2023-04-24T00:46:16;2.20;;;1.70;;
32639;SDS011;19049;52.524;11.468;2023-04-24T00:48:42;1.77;;;1.60;;
32639;SDS011;19049;52.524;11.468;2023-04-24T00:51:09;2.13;;;1.97;;
32639;SDS011;19049;52.524;11.468;2023-04-24T00:53:35;1.90;;;1.80;;
32639;SDS011;19049;52.524;11.468;2023-04-24T00:56:01;1.70;;;1.60;;
32639;SDS011;19049;52.524;11.468;2023-04-24T00:58:28;2.00;;;1.83;;
32639;SDS011;19049;52.524;11.468;2023-04-24T01:00:54;2.33;;;1.77;;
32639;SDS011;19049;52.524;11.468;2023-04-24T01:03:20;1.83;;;1.60;;
32639;SDS011;19049;52.524;11.468;2023-04-24T01:05:47;2.37;;;1.97;;
32639;SDS011;19049;52.524;11.468;2023-04-24T01:08:14;4.03;;;2.27;;
32639;SDS011;19049;52.524;11.468;2023-04-24T01:10:40;3.13;;;2.07;;
32639;SDS011;19049;52.524;11.468;2023-04-24T01:13:09;4.00;;;2.10;;
32639;SDS011;19049;52.524;11.468;2023-04-24T01:15:35;3.60;;;2.33;;
32639;SDS011;19049;52.524;11.468;2023-04-24T01:18:01;2.80;;;2.27;;
32639;SDS011;19049;52.524;11.468;2023-04-24T01:20:27;3.57;;;2.10;;
32639;SDS011;19049;52.524;11.468;2023-04-24T01:22:55;2.13;;;1.93;;
32639;SDS011;19049;52.524;11.468;2023-04-24T01:25:22;2.60;;;2.10;;
32639;SDS011;19049;52.524;11.468;2023-04-24T01:27:49;3.00;;;2.70;;
32639;SDS011;19049;52.524;11.468;2023-04-24T01:30:16;2.60;;;2.40;;
32639;SDS011;19049;52.524;11.468;2023-04-24T01:32:42;4.47;;;2.77;;
32639;SDS011;19049;52.524;11.468;2023-04-24T01:35:11;2.40;;;2.10;;
32639;SDS011;19049;52.524;11.468;2023-04-24T01:37:36;2.33;;;2.03;;
32639;SDS011;19049;52.524;11.468;2023-04-24T01:40:04;2.30;;;2.03;;
32639;SDS011;19049;52.524;11.468;2023-04-24T01:42:31;2.27;;;2.03;;
32639;SDS011;19049;52.524;11.468;2023-04-24T01:44:57;2.77;;;2.20;;
32639;SDS011;19049;52.524;11.468;2023-04-24T01:47:24;3.20;;;2.27;;
32639;SDS011;19049;52.524;11.468;2023-04-24T01:49:50;3.43;;;2.40;;
32639;SDS011;19049;52.524;11.468;2023-04-24T01:52:17;3.37;;;2.30;;
32639;SDS011;19049;52.524;11.468;2023-04-24T01:54:43;3.57;;;2.50;;
32639;SDS011;19049;52.524;11.468;2023-04-24T01:57:09;2.07;;;1.73;;
32639;SDS011;19049;52.524;11.468;2023-04-24T01:59:36;2.37;;;2.13;;
32639;SDS011;19049;52.524;11.468;2023-04-24T02:02:02;2.97;;;2.33;;
32639;SDS011;19049;52.524;11.468;2023-04-24T02:04:28;2.20;;;2.00;;
32639;SDS011;19049;52.524;11.468;2023-04-24T02:06:54;2.40;;;2.20;;
32639;SDS011;19049;52.524;11.468;2023-04-24T02:09:20;2.20;;;2.00;;
32639;SDS011;19049;52.524;11.468;2023-04-24T02:11:45;2.00;;;1.73;;
32639;SDS011;19049;52.524;11.468;2023-04-24T02:14:11;2.27;;;2.07;;
32639;SDS011;19049;52.524;11.468;2023-04-24T02:16:37;2.30;;;2.10;;
32639;SDS011;19049;52.524;11.468;2023-04-24T02:19:03;2.30;;;2.00;;
32639;SDS011;19049;52.524;11.468;2023-04-24T02:21:29;2.17;;;1.97;;
32639;SDS011;19049;52.524;11.468;2023-04-24T02:23:56;2.47;;;1.43;;
32639;SDS011;19049;52.524;11.468;2023-04-24T02:26:22;1.87;;;1.77;;
32639;SDS011;19049;52.524;11.468;2023-04-24T02:28:48;2.57;;;1.73;;
32639;SDS011;19049;52.524;11.468;2023-04-24T02:31:14;1.70;;;1.60;;
32639;SDS011;19049;52.524;11.468;2023-04-24T02:33:40;1.63;;;1.53;;
32639;SDS011;19049;52.524;11.468;2023-04-24T02:36:06;1.53;;;1.43;;
32639;SDS011;19049;52.524;11.468;2023-04-24T02:38:31;2.33;;;1.57;;
32639;SDS011;19049;52.524;11.468;2023-04-24T02:40:57;1.70;;;1.40;;
32639;SDS011;19049;52.524;11.468;2023-04-24T02:43:23;1.40;;;1.20;;
32639;SDS011;19049;52.524;11.468;2023-04-24T02:45:49;1.93;;;1.40;;
32639;SDS011;19049;52.524;11.468;2023-04-24T02:48:14;1.53;;;1.23;;
32639;SDS011;19049;52.524;11.468;2023-04-24T02:50:41;1.60;;;1.13;;
32639;SDS011;19049;52.524;11.468;2023-04-24T02:53:07;2.37;;;1.03;;
32639;SDS011;19049;52.524;11.468;2023-04-24T02:55:33;1.27;;;1.17;;
32639;SDS011;19049;52.524;11.468;2023-04-24T02:57:59;1.70;;;1.30;;
32639;SDS011;19049;52.524;11.468;2023-04-24T03:00:25;2.37;;;1.40;;
32639;SDS011;19049;52.524;11.468;2023-04-24T03:02:51;2.27;;;1.53;;
32639;SDS011;19049;52.524;11.468;2023-04-24T03:05:17;1.50;;;1.40;;
32639;SDS011;19049;52.524;11.468;2023-04-24T03:07:43;1.87;;;1.40;;
32639;SDS011;19049;52.524;11.468;2023-04-24T03:10:08;2.10;;;1.10;;
32639;SDS011;19049;52.524;11.468;2023-04-24T03:12:34;1.80;;;1.33;;
32639;SDS011;19049;52.524;11.468;2023-04-24T03:15:00;2.47;;;1.80;;
32639;SDS011;19049;52.524;11.468;2023-04-24T03:17:25;1.50;;;1.10;;
32639;SDS011;19049;52.524;11.468;2023-04-24T03:19:51;1.60;;;1.33;;
32639;SDS011;19049;52.524;11.468;2023-04-24T03:22:17;1.30;;;1.20;;
32639;SDS011;19049;52.524;11.468;2023-04-24T03:24:42;1.20;;;1.10;;
32639;SDS011;19049;52.524;11.468;2023-04-24T03:27:08;1.77;;;1.00;;
32639;SDS011;19049;52.524;11.468;2023-04-24T03:29:34;2.00;;;1.20;;
32639;SDS011;19049;52.524;11.468;2023-04-24T03:32:00;1.23;;;1.10;;
32639;SDS011;19049;52.524;11.468;2023-04-24T03:34:25;0.60;;;0.60;;
32639;SDS011;19049;52.524;11.468;2023-04-24T03:36:51;1.03;;;0.70;;
32639;SDS011;19049;52.524;11.468;2023-04-24T03:39:17;1.00;;;0.90;;
32639;SDS011;19049;52.524;11.468;2023-04-24T03:41:43;1.07;;;0.93;;
32639;SDS011;19049;52.524;11.468;2023-04-24T03:44:09;1.50;;;0.87;;
32639;SDS011;19049;52.524;11.468;2023-04-24T03:46:34;1.70;;;1.00;;
32639;SDS011;19049;52.524;11.468;2023-04-24T03:49:00;1.10;;;0.90;;
32639;SDS011;19049;52.524;11.468;2023-04-24T03:51:26;1.30;;;0.90;;
32639;SDS011;19049;52.524;11.468;2023-04-24T03:53:53;0.87;;;0.73;;
32639;SDS011;19049;52.524;11.468;2023-04-24T03:56:19;1.10;;;0.70;;
32639;SDS011;19049;52.524;11.468;2023-04-24T03:58:45;0.90;;;0.80;;
32639;SDS011;19049;52.524;11.468;2023-04-24T04:01:11;2.53;;;0.70;;
32639;SDS011;19049;52.524;11.468;2023-04-24T04:03:37;1.17;;;0.70;;
32639;SDS011;19049;52.524;11.468;2023-04-24T04:06:03;1.17;;;0.70;;
32639;SDS011;19049;52.524;11.468;2023-04-24T04:08:29;0.60;;;0.60;;
32639;SDS011;19049;52.524;11.468;2023-04-24T04:10:55;2.10;;;0.60;;
32639;SDS011;19049;52.524;11.468;2023-04-24T04:13:20;0.60;;;0.60;;
32639;SDS011;19049;52.524;11.468;2023-04-24T04:15:46;0.83;;;0.80;;
32639;SDS011;19049;52.524;11.468;2023-04-24T04:18:12;0.83;;;0.67;;
32639;SDS011;19049;52.524;11.468;2023-04-24T04:20:37;0.70;;;0.70;;
32639;SDS011;19049;52.524;11.468;2023-04-24T04:23:03;0.63;;;0.63;;
32639;SDS011;19049;52.524;11.468;2023-04-24T04:25:28;1.53;;;0.80;;
32639;SDS011;19049;52.524;11.468;2023-04-24T04:27:54;0.83;;;0.83;;
32639;SDS011;19049;52.524;11.468;2023-04-24T04:30:20;1.00;;;0.80;;
32639;SDS011;19049;52.524;11.468;2023-04-24T04:32:46;0.77;;;0.70;;
32639;SDS011;19049;52.524;11.468;2023-04-24T04:35:12;0.80;;;0.80;;
32639;SDS011;19049;52.524;11.468;2023-04-24T04:37:38;1.30;;;0.77;;
32639;SDS011;19049;52.524;11.468;2023-04-24T04:40:05;0.80;;;0.70;;
32639;SDS011;19049;52.524;11.468;2023-04-24T04:42:32;1.60;;;1.00;;
32639;SDS011;19049;52.524;11.468;2023-04-24T04:44:59;0.70;;;0.70;;
32639;SDS011;19049;52.524;11.468;2023-04-24T04:47:25;0.80;;;0.60;;
32639;SDS011;19049;52.524;11.468;2023-04-24T04:49:53;1.53;;;0.70;;
32639;SDS011;19049;52.524;11.468;2023-04-24T04:52:19;0.83;;;0.70;;
32639;SDS011;19049;52.524;11.468;2023-04-24T04:54:49;0.90;;;0.80;;
32639;SDS011;19049;52.524;11.468;2023-04-24T04:57:15;1.77;;;0.80;;
32639;SDS011;19049;52.524;11.468;2023-04-24T04:59:41;1.17;;;0.70;;
32639;SDS011;19049;52.524;11.468;2023-04-24T05:02:07;1.10;;;1.00;;
32639;SDS011;19049;52.524;11.468;2023-04-24T05:04:33;1.17;;;0.70;;
32639;SDS011;19049;52.524;11.468;2023-04-24T05:06:58;0.60;;;0.60;;
32639;SDS011;19049;52.524;11.468;2023-04-24T05:09:24;1.13;;;0.70;;
32639;SDS011;19049;52.524;11.468;2023-04-24T05:11:52;0.80;;;0.70;;
32639;SDS011;19049;52.524;11.468;2023-04-24T05:14:18;0.77;;;0.60;;
32639;SDS011;19049;52.524;11.468;2023-04-24T05:16:44;0.80;;;0.70;;
32639;SDS011;19049;52.524;11.468;2023-04-24T05:19:10;0.93;;;0.80;;
32639;SDS011;19049;52.524;11.468;2023-04-24T05:21:38;0.67;;;0.67;;
32639;SDS011;19049;52.524;11.468;2023-04-24T05:24:05;1.53;;;0.90;;
32639;SDS011;19049;52.524;11.468;2023-04-24T05:26:31;0.60;;;0.60;;
32639;SDS011;19049;52.524;11.468;2023-04-24T05:28:57;0.80;;;0.70;;
32639;SDS011;19049;52.524;11.468;2023-04-24T05:31:23;0.60;;;0.60;;
32639;SDS011;19049;52.524;11.468;2023-04-24T05:33:50;0.60;;;0.53;;
32639;SDS011;19049;52.524;11.468;2023-04-24T05:36:15;0.73;;;0.60;;
32639;SDS011;19049;52.524;11.468;2023-04-24T05:38:41;0.63;;;0.60;;
32639;SDS011;19049;52.524;11.468;2023-04-24T05:41:07;0.70;;;0.43;;
32639;SDS011;19049;52.524;11.468;2023-04-24T05:43:33;0.60;;;0.60;;
32639;SDS011;19049;52.524;11.468;2023-04-24T05:45:58;0.57;;;0.57;;
32639;SDS011;19049;52.524;11.468;2023-04-24T05:48:24;0.83;;;0.77;;
32639;SDS011;19049;52.524;11.468;2023-04-24T05:50:51;0.73;;;0.60;;
32639;SDS011;19049;52.524;11.468;2023-04-24T05:53:17;0.53;;;0.43;;
32639;SDS011;19049;52.524;11.468;2023-04-24T05:55:43;0.37;;;0.37;;
32639;SDS011;19049;52.524;11.468;2023-04-24T05:58:10;0.40;;;0.33;;
32639;SDS011;19049;52.524;11.468;2023-04-24T06:00:36;0.77;;;0.43;;
32639;SDS011;19049;52.524;11.468;2023-04-24T06:03:02;2.70;;;0.70;;
32639;SDS011;19049;52.524;11.468;2023-04-24T06:05:29;0.70;;;0.70;;
32639;SDS011;19049;52.524;11.468;2023-04-24T06:07:55;0.60;;;0.60;;
32639;SDS011;19049;52.524;11.468;2023-04-24T06:10:23;0.57;;;0.50;;
32639;SDS011;19049;52.524;11.468;2023-04-24T06:12:49;0.30;;;0.30;;
32639;SDS011;19049;52.524;11.468;2023-04-24T06:15:15;0.70;;;0.40;;
32639;SDS011;19049;52.524;11.468;2023-04-24T06:17:40;0.40;;;0.40;;
32639;SDS011;19049;52.524;11.468;2023-04-24T06:20:06;0.40;;;0.40;;
32639;SDS011;19049;52.524;11.468;2023-04-24T06:22:33;0.40;;;0.33;;
32639;SDS011;19049;52.524;11.468;2023-04-24T06:24:59;0.60;;;0.53;;
32639;SDS011;19049;52.524;11.468;2023-04-24T06:27:26;0.60;;;0.60;;
32639;SDS011;19049;52.524;11.468;2023-04-24T06:29:51;1.07;;;0.67;;
32639;SDS011;19049;52.524;11.468;2023-04-24T06:32:23;0.60;;;0.60;;
32639;SDS011;19049;52.524;11.468;2023-04-24T06:34:50;0.50;;;0.50;;
32639;SDS011;19049;52.524;11.468;2023-04-24T06:37:17;0.73;;;0.50;;
32639;SDS011;19049;52.524;11.468;2023-04-24T06:39:44;0.67;;;0.57;;
32639;SDS011;19049;52.524;11.468;2023-04-24T06:42:10;0.70;;;0.43;;
32639;SDS011;19049;52.524;11.468;2023-04-24T06:44:36;0.50;;;0.50;;
32639;SDS011;19049;52.524;11.468;2023-04-24T06:47:06;0.77;;;0.60;;
32639;SDS011;19049;52.524;11.468;2023-04-24T06:49:33;1.03;;;0.60;;
32639;SDS011;19049;52.524;11.468;2023-04-24T06:52:00;0.90;;;0.50;;
32639;SDS011;19049;52.524;11.468;2023-04-24T06:54:25;0.60;;;0.50;;
32639;SDS011;19049;52.524;11.468;2023-04-24T06:56:51;1.07;;;0.50;;
32639;SDS011;19049;52.524;11.468;2023-04-24T06:59:17;0.63;;;0.47;;
32639;SDS011;19049;52.524;11.468;2023-04-24T07:01:43;2.93;;;0.60;;
32639;SDS011;19049;52.524;11.468;2023-04-24T07:04:10;1.17;;;0.60;;
32639;SDS011;19049;52.524;11.468;2023-04-24T07:06:37;1.13;;;0.60;;
32639;SDS011;19049;52.524;11.468;2023-04-24T07:09:04;1.30;;;0.57;;
32639;SDS011;19049;52.524;11.468;2023-04-24T07:11:30;0.30;;;0.30;;
32639;SDS011;19049;52.524;11.468;2023-04-24T07:13:56;0.70;;;0.60;;
32639;SDS011;19049;52.524;11.468;2023-04-24T07:16:22;2.10;;;0.63;;
32639;SDS011;19049;52.524;11.468;2023-04-24T07:18:48;0.67;;;0.50;;
32639;SDS011;19049;52.524;11.468;2023-04-24T07:21:13;1.80;;;0.63;;
32639;SDS011;19049;52.524;11.468;2023-04-24T07:23:39;0.60;;;0.50;;
32639;SDS011;19049;52.524;11.468;2023-04-24T07:26:06;0.70;;;0.50;;
32639;SDS011;19049;52.524;11.468;2023-04-24T07:28:32;2.23;;;0.73;;
32639;SDS011;19049;52.524;11.468;2023-04-24T07:30:58;0.60;;;0.60;;
32639;SDS011;19049;52.524;11.468;2023-04-24T07:33:24;0.60;;;0.50;;
32639;SDS011;19049;52.524;11.468;2023-04-24T07:35:51;0.40;;;0.40;;
32639;SDS011;19049;52.524;11.468;2023-04-24T07:38:17;0.40;;;0.40;;
32639;SDS011;19049;52.524;11.468;2023-04-24T07:40:46;0.53;;;0.53;;
32639;SDS011;19049;52.524;11.468;2023-04-24T07:43:12;0.67;;;0.47;;
32639;SDS011;19049;52.524;11.468;2023-04-24T07:45:38;0.70;;;0.50;;
32639;SDS011;19049;52.524;11.468;2023-04-24T07:48:04;0.73;;;0.60;;
32639;SDS011;19049;52.524;11.468;2023-04-24T07:50:30;0.93;;;0.60;;
32639;SDS011;19049;52.524;11.468;2023-04-24T07:52:57;0.50;;;0.50;;
32639;SDS011;19049;52.524;11.468;2023-04-24T07:55:23;0.50;;;0.50;;
32639;SDS011;19049;52.524;11.468;2023-04-24T07:57:49;1.17;;;0.70;;
32639;SDS011;19049;52.524;11.468;2023-04-24T08:00:15;1.37;;;0.63;;
32639;SDS011;19049;52.524;11.468;2023-04-24T08:02:41;0.80;;;0.60;;
32639;SDS011;19049;52.524;11.468;2023-04-24T08:05:07;0.70;;;0.63;;
32639;SDS011;19049;52.524;11.468;2023-04-24T08:07:33;1.17;;;0.70;;
32639;SDS011;19049;52.524;11.468;2023-04-24T08:10:00;1.47;;;0.67;;
32639;SDS011;19049;52.524;11.468;2023-04-24T08:12:28;0.50;;;0.50;;
32639;SDS011;19049;52.524;11.468;2023-04-24T08:14:54;1.00;;;0.70;;
32639;SDS011;19049;52.524;11.468;2023-04-24T08:17:20;0.63;;;0.60;;
32639;SDS011;19049;52.524;11.468;2023-04-24T08:19:46;0.60;;;0.40;;
32639;SDS011;19049;52.524;11.468;2023-04-24T08:22:16;0.67;;;0.60;;
32639;SDS011;19049;52.524;11.468;2023-04-24T08:24:42;0.50;;;0.50;;
32639;SDS011;19049;52.524;11.468;2023-04-24T08:27:08;0.60;;;0.53;;
32639;SDS011;19049;52.524;11.468;2023-04-24T08:29:35;0.63;;;0.50;;
32639;SDS011;19049;52.524;11.468;2023-04-24T08:32:01;1.07;;;0.50;;
32639;SDS011;19049;52.524;11.468;2023-04-24T08:34:27;0.70;;;0.40;;
32639;SDS011;19049;52.524;11.468;2023-04-24T08:36:53;1.17;;;0.50;;
32639;SDS011;19049;52.524;11.468;2023-04-24T08:39:19;0.50;;;0.50;;
32639;SDS011;19049;52.524;11.468;2023-04-24T08:41:45;0.93;;;0.60;;
32639;SDS011;19049;52.524;11.468;2023-04-24T08:44:11;1.07;;;0.50;;
32639;SDS011;19049;52.524;11.468;2023-04-24T08:46:40;0.83;;;0.50;;
32639;SDS011;19049;52.524;11.468;2023-04-24T08:49:07;2.27;;;0.73;;
32639;SDS011;19049;52.524;11.468;2023-04-24T08:51:33;0.50;;;0.50;;
32639;SDS011;19049;52.524;11.468;2023-04-24T08:53:59;0.43;;;0.43;;
32639;SDS011;19049;52.524;11.468;2023-04-24T08:56:27;0.53;;;0.53;;
32639;SDS011;19049;52.524;11.468;2023-04-24T08:58:55;1.00;;;0.50;;
32639;SDS011;19049;52.524;11.468;2023-04-24T09:01:21;0.60;;;0.60;;
32639;SDS011;19049;52.524;11.468;2023-04-24T09:03:49;0.50;;;0.50;;
32639;SDS011;19049;52.524;11.468;2023-04-24T09:06:17;1.07;;;0.53;;
32639;SDS011;19049;52.524;11.468;2023-04-24T09:08:44;1.27;;;0.70;;
32639;SDS011;19049;52.524;11.468;2023-04-24T09:11:12;0.83;;;0.60;;
32639;SDS011;19049;52.524;11.468;2023-04-24T09:13:38;0.77;;;0.70;;
32639;SDS011;19049;52.524;11.468;2023-04-24T09:16:04;0.73;;;0.50;;
32639;SDS011;19049;52.524;11.468;2023-04-24T09:18:29;1.07;;;0.77;;
32639;SDS011;19049;52.524;11.468;2023-04-24T09:21:08;2.23;;;0.50;;
32639;SDS011;19049;52.524;11.468;2023-04-24T09:23:35;0.87;;;0.70;;
32639;SDS011;19049;52.524;11.468;2023-04-24T09:26:01;0.90;;;0.70;;
32639;SDS011;19049;52.524;11.468;2023-04-24T09:28:31;0.90;;;0.90;;
32639;SDS011;19049;52.524;11.468;2023-04-24T09:33:29;0.73;;;0.70;;
32639;SDS011;19049;52.524;11.468;2023-04-24T09:35:55;1.33;;;0.90;;
32639;SDS011;19049;52.524;11.468;2023-04-24T09:38:31;2.83;;;0.87;;
32639;SDS011;19049;52.524;11.468;2023-04-24T09:41:07;2.30;;;0.90;;
32639;SDS011;19049;52.524;11.468;2023-04-24T09:43:34;1.43;;;1.13;;
32639;SDS011;19049;52.524;11.468;2023-04-24T09:46:04;1.10;;;0.87;;
32639;SDS011;19049;52.524;11.468;2023-04-24T09:48:34;0.97;;;0.90;;
32639;SDS011;19049;52.524;11.468;2023-04-24T09:51:04;1.33;;;0.90;;
32639;SDS011;19049;52.524;11.468;2023-04-24T09:53:36;1.00;;;0.90;;
32639;SDS011;19049;52.524;11.468;2023-04-24T09:56:03;0.83;;;0.80;;
32639;SDS011;19049;52.524;11.468;2023-04-24T09:58:36;1.07;;;0.80;;
32639;SDS011;19049;52.524;11.468;2023-04-24T10:01:02;1.07;;;0.90;;
32639;SDS011;19049;52.524;11.468;2023-04-24T10:03:31;0.97;;;0.90;;
32639;SDS011;19049;52.524;11.468;2023-04-24T10:05:59;1.27;;;1.00;;
32639;SDS011;19049;52.524;11.468;2023-04-24T10:08:25;1.53;;;1.33;;
32639;SDS011;19049;52.524;11.468;2023-04-24T10:10:52;1.47;;;1.30;;
32639;SDS011;19049;52.524;11.468;2023-04-24T10:13:17;1.17;;;1.00;;
32639;SDS011;19049;52.524;11.468;2023-04-24T10:15:44;1.50;;;1.40;;
32639;SDS011;19049;52.524;11.468;2023-04-24T10:18:10;2.43;;;1.30;;
32639;SDS011;19049;52.524;11.468;2023-04-24T10:20:37;3.17;;;2.00;;
32639;SDS011;19049;52.524;11.468;2023-04-24T10:23:04;1.50;;;1.40;;
32639;SDS011;19049;52.524;11.468;2023-04-24T10:25:30;3.13;;;1.93;;
32639;SDS011;19049;52.524;11.468;2023-04-24T10:27:58;1.90;;;1.80;;
32639;SDS011;19049;52.524;11.468;2023-04-24T10:30:27;2.07;;;1.60;;
32639;SDS011;19049;52.524;11.468;2023-04-24T10:32:55;2.43;;;1.97;;
32639;SDS011;19049;52.524;11.468;2023-04-24T10:35:21;2.17;;;1.97;;
32639;SDS011;19049;52.524;11.468;2023-04-24T10:37:53;1.97;;;1.80;;
32639;SDS011;19049;52.524;11.468;2023-04-24T10:40:32;1.63;;;1.53;;
32639;SDS011;19049;52.524;11.468;2023-04-24T10:42:59;2.27;;;1.87;;
32639;SDS011;19049;52.524;11.468;2023-04-24T10:45:31;2.20;;;1.83;;
32639;SDS011;19049;52.524;11.468;2023-04-24T10:47:58;2.17;;;1.83;;
32639;SDS011;19049;52.524;11.468;2023-04-24T10:50:25;2.67;;;1.97;;
32639;SDS011;19049;52.524;11.468;2023-04-24T10:52:52;3.40;;;2.10;;
32639;SDS011;19049;52.524;11.468;2023-04-24T10:55:40;2.17;;;1.80;;
32639;SDS011;19049;52.524;11.468;2023-04-24T10:58:10;2.03;;;1.93;;
32639;SDS011;19049;52.524;11.468;2023-04-24T11:00:37;1.90;;;1.70;;
32639;SDS011;19049;52.524;11.468;2023-04-24T11:03:05;1.87;;;1.77;;
32639;SDS011;19049;52.524;11.468;2023-04-24T11:05:51;1.50;;;1.40;;
32639;SDS011;19049;52.524;11.468;2023-04-24T11:10:47;1.80;;;1.70;;
32639;SDS011;19049;52.524;11.468;2023-04-24T11:13:21;1.80;;;1.70;;
32639;SDS011;19049;52.524;11.468;2023-04-24T11:18:40;1.60;;;1.50;;
32639;SDS011;19049;52.524;11.468;2023-04-24T11:21:15;1.70;;;1.50;;
32639;SDS011;19049;52.524;11.468;2023-04-24T11:23:42;1.30;;;1.20;;
32639;SDS011;19049;52.524;11.468;2023-04-24T11:26:11;1.57;;;1.47;;
32639;SDS011;19049;52.524;11.468;2023-04-24T11:28:43;5.27;;;1.60;;
32639;SDS011;19049;52.524;11.468;2023-04-24T11:31:34;2.67;;;1.80;;
32639;SDS011;19049;52.524;11.468;2023-04-24T11:34:08;3.10;;;1.80;;
32639;SDS011;19049;52.524;11.468;2023-04-24T11:36:35;2.53;;;1.70;;
32639;SDS011;19049;52.524;11.468;2023-04-24T11:39:01;1.73;;;1.63;;
32639;SDS011;19049;52.524;11.468;2023-04-24T11:41:27;2.03;;;1.63;;
32639;SDS011;19049;52.524;11.468;2023-04-24T11:43:53;1.87;;;1.50;;
32639;SDS011;19049;52.524;11.468;2023-04-24T11:46:22;1.37;;;1.27;;
32639;SDS011;19049;52.524;11.468;2023-04-24T11:48:51;1.70;;;1.60;;
32639;SDS011;19049;52.524;11.468;2023-04-24T11:51:17;1.80;;;1.57;;
32639;SDS011;19049;52.524;11.468;2023-04-24T11:53:43;1.70;;;1.53;;
32639;SDS011;19049;52.524;11.468;2023-04-24T11:56:09;1.97;;;1.37;;
32639;SDS011;19049;52.524;11.468;2023-04-24T11:58:35;4.60;;;1.50;;
32639;SDS011;19049;52.524;11.468;2023-04-24T12:01:02;2.33;;;1.70;;
32639;SDS011;19049;52.524;11.468;2023-04-24T12:03:29;1.53;;;1.20;;
32639;SDS011;19049;52.524;11.468;2023-04-24T12:06:10;2.70;;;1.50;;
32639;SDS011;19049;52.524;11.468;2023-04-24T12:08:36;2.83;;;1.40;;
32639;SDS011;19049;52.524;11.468;2023-04-24T12:11:05;1.50;;;1.40;;
32639;SDS011;19049;52.524;11.468;2023-04-24T12:13:32;1.60;;;1.50;;
32639;SDS011;19049;52.524;11.468;2023-04-24T12:15:59;2.33;;;2.13;;
32639;SDS011;19049;52.524;11.468;2023-04-24T12:18:26;1.70;;;1.60;;
32639;SDS011;19049;52.524;11.468;2023-04-24T12:20:52;2.43;;;1.60;;
32639;SDS011;19049;52.524;11.468;2023-04-24T12:23:34;1.47;;;1.37;;
32639;SDS011;19049;52.524;11.468;2023-04-24T12:26:03;2.17;;;1.27;;
32639;SDS011;19049;52.524;11.468;2023-04-24T12:28:36;0.90;;;0.90;;
32639;SDS011;19049;52.524;11.468;2023-04-24T12:31:03;1.37;;;1.00;;
32639;SDS011;19049;52.524;11.468;2023-04-24T12:33:32;1.03;;;0.93;;
32639;SDS011;19049;52.524;11.468;2023-04-24T12:35:59;1.23;;;1.00;;
32639;SDS011;19049;52.524;11.468;2023-04-24T12:38:26;0.90;;;0.80;;
32639;SDS011;19049;52.524;11.468;2023-04-24T12:41:04;1.00;;;0.80;;
32639;SDS011;19049;52.524;11.468;2023-04-24T12:43:30;2.00;;;0.70;;
32639;SDS011;19049;52.524;11.468;2023-04-24T12:45:57;0.90;;;0.90;;
32639;SDS011;19049;52.524;11.468;2023-04-24T12:48:24;0.83;;;0.83;;
32639;SDS011;19049;52.524;11.468;2023-04-24T12:50:50;1.47;;;0.80;;
32639;SDS011;19049;52.524;11.468;2023-04-24T12:53:16;1.27;;;0.90;;
32639;SDS011;19049;52.524;11.468;2023-04-24T12:55:42;1.53;;;1.10;;
32639;SDS011;19049;52.524;11.468;2023-04-24T12:58:09;1.00;;;0.90;;
32639;SDS011;19049;52.524;11.468;2023-04-24T13:00:35;0.80;;;0.80;;
32639;SDS011;19049;52.524;11.468;2023-04-24T13:03:02;1.13;;;0.93;;
32639;SDS011;19049;52.524;11.468;2023-04-24T13:05:28;1.00;;;0.90;;
32639;SDS011;19049;52.524;11.468;2023-04-24T13:07:54;0.90;;;0.90;;
32639;SDS011;19049;52.524;11.468;2023-04-24T13:10:20;1.27;;;1.07;;
32639;SDS011;19049;52.524;11.468;2023-04-24T13:12:46;1.30;;;1.20;;
32639;SDS011;19049;52.524;11.468;2023-04-24T13:15:12;0.87;;;0.83;;
32639;SDS011;19049;52.524;11.468;2023-04-24T13:17:38;1.00;;;0.90;;
32639;SDS011;19049;52.524;11.468;2023-04-24T13:20:04;0.80;;;0.80;;
32639;SDS011;19049;52.524;11.468;2023-04-24T13:22:30;1.60;;;1.10;;
32639;SDS011;19049;52.524;11.468;2023-04-24T13:24:56;1.10;;;1.00;;
32639;SDS011;19049;52.524;11.468;2023-04-24T13:27:22;1.33;;;0.90;;
32639;SDS011;19049;52.524;11.468;2023-04-24T13:29:48;1.10;;;1.00;;
32639;SDS011;19049;52.524;11.468;2023-04-24T13:32:14;1.40;;;1.03;;
32639;SDS011;19049;52.524;11.468;2023-04-24T13:34:40;1.30;;;1.20;;
32639;SDS011;19049;52.524;11.468;2023-04-24T13:37:06;1.20;;;1.10;;
32639;SDS011;19049;52.524;11.468;2023-04-24T13:39:32;1.60;;;0.70;;
32639;SDS011;19049;52.524;11.468;2023-04-24T13:41:58;1.70;;;0.80;;
32639;SDS011;19049;52.524;11.468;2023-04-24T13:44:25;2.47;;;1.10;;
32639;SDS011;19049;52.524;11.468;2023-04-24T13:46:54;0.90;;;0.83;;
32639;SDS011;19049;52.524;11.468;2023-04-24T13:49:21;1.20;;;0.90;;
32639;SDS011;19049;52.524;11.468;2023-04-24T13:51:49;0.80;;;0.80;;
32639;SDS011;19049;52.524;11.468;2023-04-24T13:54:15;1.07;;;0.77;;
32639;SDS011;19049;52.524;11.468;2023-04-24T13:56:41;1.40;;;1.30;;
32639;SDS011;19049;52.524;11.468;2023-04-24T13:59:07;1.90;;;1.10;;
32639;SDS011;19049;52.524;11.468;2023-04-24T14:01:33;1.10;;;1.00;;
32639;SDS011;19049;52.524;11.468;2023-04-24T14:03:59;1.07;;;0.97;;
32639;SDS011;19049;52.524;11.468;2023-04-24T14:06:25;0.90;;;0.80;;
32639;SDS011;19049;52.524;11.468;2023-04-24T14:08:51;0.80;;;0.80;;
32639;SDS011;19049;52.524;11.468;2023-04-24T14:11:17;1.40;;;1.23;;
32639;SDS011;19049;52.524;11.468;2023-04-24T14:13:44;1.97;;;1.00;;
32639;SDS011;19049;52.524;11.468;2023-04-24T14:16:10;1.20;;;1.10;;
32639;SDS011;19049;52.524;11.468;2023-04-24T14:18:36;1.63;;;1.00;;
32639;SDS011;19049;52.524;11.468;2023-04-24T14:21:03;2.67;;;1.03;;
32639;SDS011;19049;52.524;11.468;2023-04-24T14:23:29;0.80;;;0.80;;
32639;SDS011;19049;52.524;11.468;2023-04-24T14:25:55;0.70;;;0.70;;
32639;SDS011;19049;52.524;11.468;2023-04-24T14:28:21;1.03;;;0.80;;
32639;SDS011;19049;52.524;11.468;2023-04-24T14:30:47;1.77;;;0.80;;
32639;SDS011;19049;52.524;11.468;2023-04-24T14:33:13;0.60;;;0.60;;
32639;SDS011;19049;52.524;11.468;2023-04-24T14:35:40;0.97;;;0.70;;
32639;SDS011;19049;52.524;11.468;2023-04-24T14:38:07;0.80;;;0.80;;